createdAt,value
2022-10-02T00:02:05.587Z,100556.88
2022-10-02T00:04:41.647Z,100554.91
2022-10-02T00:07:11.282Z,100551.44
2022-10-02T00:09:46.280Z,100561.00
2022-10-02T00:12:17.367Z,100558.38
2022-10-02T00:14:46.940Z,100568.94
2022-10-02T00:17:29.335Z,100570.09
2022-10-02T00:19:56.508Z,100569.22
2022-10-02T00:22:41.280Z,100575.31
2022-10-02T00:25:14.052Z,100573.31
2022-10-02T00:28:22.636Z,100571.78
2022-10-02T00:31:30.823Z,100573.25
2022-10-02T00:34:12.972Z,100576.00
2022-10-02T00:36:59.784Z,100586.72
2022-10-02T00:40:28.685Z,100582.25
2022-10-02T00:43:59.802Z,100591.25
2022-10-02T00:47:28.138Z,100592.03
2022-10-02T00:50:26.780Z,100583.31
2022-10-02T00:53:26.905Z,100586.00
2022-10-02T00:56:11.151Z,100587.84
2022-10-02T00:58:51.903Z,100595.56
2022-10-02T01:01:23.647Z,100599.03
2022-10-02T01:03:56.343Z,100589.53
2022-10-02T01:06:26.401Z,100591.09
2022-10-02T01:08:52.839Z,100595.56
2022-10-02T01:11:24.256Z,100591.09
2022-10-02T01:13:51.792Z,100601.50
2022-10-02T01:16:18.700Z,100595.34
2022-10-02T01:18:47.848Z,100579.47
2022-10-02T01:21:42.542Z,100571.00
2022-10-02T01:24:18.164Z,100585.09
2022-10-02T01:26:44.561Z,100589.34
2022-10-02T01:29:11.046Z,100581.69
2022-10-02T01:31:38.131Z,100580.91
2022-10-02T01:34:05.043Z,100582.47
2022-10-02T01:36:32.568Z,100579.84
2022-10-02T01:39:00.730Z,100583.38
2022-10-02T01:41:27.275Z,100579.72
2022-10-02T01:43:58.677Z,100587.63
2022-10-02T01:47:04.734Z,100590.25
2022-10-02T01:49:52.901Z,100590.94
2022-10-02T01:52:41.612Z,100593.56
2022-10-02T01:55:32.986Z,100602.44
2022-10-02T01:58:29.702Z,100606.66
2022-10-02T02:01:17.311Z,100612.91
2022-10-02T02:03:55.364Z,100610.22
2022-10-02T02:06:33.650Z,100602.44
2022-10-02T02:09:13.154Z,100596.41
2022-10-02T02:11:45.965Z,100599.28
2022-10-02T02:14:17.212Z,100595.56
2022-10-02T02:16:46.154Z,100597.47
2022-10-02T02:19:25.267Z,100610.56
2022-10-02T02:22:17.264Z,100606.94
2022-10-02T02:24:52.237Z,100617.44
2022-10-02T02:27:24.683Z,100608.34
2022-10-02T02:29:56.801Z,100611.69
2022-10-02T02:32:29.089Z,100609.00
2022-10-02T02:35:04.728Z,100618.38
2022-10-02T02:37:35.572Z,100618.97
2022-10-02T02:40:07.246Z,100613.81
2022-10-02T02:42:41.010Z,100612.88
2022-10-02T02:45:12.160Z,100612.66
2022-10-02T02:47:43.443Z,100606.66
2022-10-02T02:50:19.170Z,100604.78
2022-10-02T02:52:53.319Z,100601.41
2022-10-02T02:55:24.468Z,100589.16
2022-10-02T02:58:14.835Z,100591.78
2022-10-02T03:00:41.730Z,100585.78
2022-10-02T03:03:08.309Z,100592.78
2022-10-02T03:05:37.661Z,100592.78
2022-10-02T03:08:07.547Z,100592.88
2022-10-02T03:11:05.618Z,100596.41
2022-10-02T03:13:53.391Z,100601.78
2022-10-02T03:16:48.115Z,100598.41
2022-10-02T03:19:30.210Z,100605.19
2022-10-02T03:22:02.974Z,100611.28
2022-10-02T03:24:52.399Z,100602.72
2022-10-02T03:27:23.143Z,100615.03
2022-10-02T03:29:57.146Z,100595.78
2022-10-02T03:32:26.369Z,100600.22
2022-10-02T03:34:53.292Z,100603.44
2022-10-02T03:37:21.523Z,100607.25
2022-10-02T03:39:49.584Z,100610.84
2022-10-02T03:42:20.406Z,100609.78
2022-10-02T03:44:47.235Z,100618.69
2022-10-02T03:47:13.704Z,100610.78
2022-10-02T03:49:40.762Z,100607.25
2022-10-02T03:52:07.953Z,100610.06
2022-10-02T03:54:35.938Z,100610.22
2022-10-02T03:57:10.266Z,100613.75
2022-10-02T03:59:46.813Z,100621.44
2022-10-02T04:02:31.243Z,100623.31
2022-10-02T04:05:24.032Z,100617.91
2022-10-02T04:07:56.437Z,100617.78
2022-10-02T04:10:45.364Z,100609.13
2022-10-02T04:13:36.661Z,100612.53
2022-10-02T04:16:10.412Z,100616.88
2022-10-02T04:18:55.655Z,100616.16
2022-10-02T04:21:28.051Z,100624.78
2022-10-02T04:24:03.844Z,100618.69
2022-10-02T04:26:35.533Z,100625.94
2022-10-02T04:29:25.744Z,100632.94
2022-10-02T04:31:59.787Z,100629.59
2022-10-02T04:34:28.225Z,100635.75
2022-10-02T04:37:14.308Z,100631.44
2022-10-02T04:40:07.640Z,100624.44
2022-10-02T04:42:46.521Z,100628.03
2022-10-02T04:45:29.386Z,100618.41
2022-10-02T04:48:12.574Z,100620.31
2022-10-02T04:50:42.039Z,100615.72
2022-10-02T04:53:37.618Z,100612.31
2022-10-02T04:56:42.776Z,100607.88
2022-10-02T04:59:42.815Z,100619.25
2022-10-02T05:02:46.835Z,100621.94
2022-10-02T05:05:40.938Z,100623.44
2022-10-02T05:08:16.373Z,100615.59
2022-10-02T05:11:20.615Z,100624.44
2022-10-02T05:14:11.442Z,100625.94
2022-10-02T05:16:55.537Z,100625.28
2022-10-02T05:20:08.090Z,100622.47
2022-10-02T05:22:52.276Z,100627.06
2022-10-02T05:25:30.524Z,100627.00
2022-10-02T05:28:16.453Z,100626.06
2022-10-02T05:30:50.352Z,100627.97
2022-10-02T05:33:36.342Z,100623.59
2022-10-02T05:36:32.466Z,100626.94
2022-10-02T05:39:07.941Z,100628.81
2022-10-02T05:41:46.215Z,100625.28
2022-10-02T05:44:17.065Z,100621.94
2022-10-02T05:46:55.467Z,100617.63
2022-10-02T05:49:34.935Z,100609.72
2022-10-02T05:52:12.729Z,100607.81
2022-10-02T05:54:52.799Z,100613.03
2022-10-02T05:57:33.076Z,100623.59
2022-10-02T06:00:06.234Z,100623.78
2022-10-02T06:03:11.353Z,100621.09
2022-10-02T06:06:02.541Z,100630.59
2022-10-02T06:08:41.236Z,100639.31
2022-10-02T06:11:15.163Z,100627.25
2022-10-02T06:13:57.913Z,100631.38
2022-10-02T06:16:33.173Z,100630.66
2022-10-02T06:19:10.643Z,100634.84
2022-10-02T06:21:45.468Z,100636.56
2022-10-02T06:24:20.273Z,100646.38
2022-10-02T06:26:57.756Z,100640.22
2022-10-02T06:29:31.332Z,100645.41
2022-10-02T06:32:10.438Z,100640.16
2022-10-02T06:34:36.930Z,100642.91
2022-10-02T06:37:19.829Z,100636.63
2022-10-02T06:39:59.308Z,100634.13
2022-10-02T06:42:39.314Z,100628.03
2022-10-02T06:45:21.154Z,100619.41
2022-10-02T06:48:28.729Z,100618.28
2022-10-02T06:50:58.274Z,100621.94
2022-10-02T06:54:03.056Z,100625.47
2022-10-02T06:56:37.196Z,100622.94
2022-10-02T06:59:19.261Z,100621.09
2022-10-02T07:02:17.387Z,100626.41
2022-10-02T07:05:33.660Z,100634.06
2022-10-02T07:07:59.979Z,100645.66
2022-10-02T07:10:50.042Z,100645.53
2022-10-02T07:13:35.784Z,100636.09
2022-10-02T07:16:22.886Z,100646.13
2022-10-02T07:19:21.771Z,100634.06
2022-10-02T07:22:39.589Z,100627.91
2022-10-02T07:25:24.317Z,100615.94
2022-10-02T07:28:08.827Z,100635.19
2022-10-02T07:30:47.485Z,100630.66
2022-10-02T07:33:31.195Z,100624.63
2022-10-02T07:36:11.796Z,100637.28
2022-10-02T07:38:55.820Z,100629.69
2022-10-02T07:41:41.852Z,100635.91
2022-10-02T07:44:54.360Z,100649.91
2022-10-02T07:47:46.210Z,100651.63
2022-10-02T07:50:22.684Z,100641.31
2022-10-02T07:53:19.183Z,100638.72
2022-10-02T07:55:54.878Z,100651.69
2022-10-02T07:58:52.073Z,100657.69
2022-10-02T08:01:24.699Z,100654.56
2022-10-02T08:04:03.964Z,100656.13
2022-10-02T08:06:33.767Z,100658.63
2022-10-02T08:09:14.131Z,100657.75
2022-10-02T08:11:50.308Z,100659.59
2022-10-02T08:14:19.931Z,100663.84
2022-10-02T08:16:49.649Z,100648.22
2022-10-02T08:19:30.134Z,100656.91
2022-10-02T08:22:01.667Z,100664.66
2022-10-02T08:24:39.031Z,100657.63
2022-10-02T08:27:12.936Z,100649.66
2022-10-02T08:29:44.383Z,100648.00
2022-10-02T08:32:12.455Z,100644.34
2022-10-02T08:34:40.728Z,100635.47
2022-10-02T08:37:42.758Z,100644.91
2022-10-02T08:40:43.334Z,100637.88
2022-10-02T08:43:48.041Z,100632.22
2022-10-02T08:46:41.622Z,100632.84
2022-10-02T08:49:38.576Z,100637.09
2022-10-02T08:52:36.086Z,100639.16
2022-10-02T08:55:31.535Z,100629.19
2022-10-02T08:58:31.629Z,100630.75
2022-10-02T09:01:17.180Z,100635.13
2022-10-02T09:04:01.643Z,100639.03
2022-10-02T09:06:57.307Z,100641.09
2022-10-02T09:09:50.600Z,100634.63
2022-10-02T09:12:44.136Z,100644.09
2022-10-02T09:15:17.145Z,100648.28
2022-10-02T09:17:47.446Z,100640.78
2022-10-02T09:20:20.063Z,100630.94
2022-10-02T09:23:17.143Z,100644.34
2022-10-02T09:25:53.771Z,100630.31
2022-10-02T09:28:39.221Z,100642.56
2022-10-02T09:31:27.180Z,100623.31
2022-10-02T09:34:03.431Z,100609.28
2022-10-02T09:36:39.221Z,100628.69
2022-10-02T09:39:39.779Z,100621.69
2022-10-02T09:42:24.170Z,100615.44
2022-10-02T09:45:12.186Z,100630.00
2022-10-02T09:48:05.064Z,100632.63
2022-10-02T09:51:10.027Z,100632.19
2022-10-02T09:54:06.965Z,100645.41
2022-10-02T09:56:55.381Z,100634.41
2022-10-02T09:59:36.639Z,100628.25
2022-10-02T10:02:03.299Z,100621.03
2022-10-02T10:05:05.183Z,100622.25
2022-10-02T10:07:54.573Z,100630.25
2022-10-02T10:10:45.462Z,100627.31
2022-10-02T10:13:35.480Z,100627.31
2022-10-02T10:16:29.415Z,100635.97
2022-10-02T10:19:08.174Z,100641.34
2022-10-02T10:22:08.912Z,100639.72
2022-10-02T10:25:07.345Z,100657.44
2022-10-02T10:27:55.188Z,100661.41
2022-10-02T10:30:37.199Z,100655.22
2022-10-02T10:33:34.607Z,100643.63
2022-10-02T10:36:48.516Z,100655.28
2022-10-02T10:39:54.582Z,100647.81
2022-10-02T10:43:06.583Z,100628.03
2022-10-02T10:46:11.293Z,100640.34
2022-10-02T10:48:49.935Z,100635.50
2022-10-02T10:51:40.147Z,100652.47
2022-10-02T10:54:25.949Z,100652.06
2022-10-02T10:57:12.626Z,100641.72
2022-10-02T10:59:53.623Z,100637.41
2022-10-02T11:02:39.050Z,100645.53
2022-10-02T11:05:17.162Z,100649.13
2022-10-02T11:08:28.306Z,100651.28
2022-10-02T11:11:16.797Z,100658.44
2022-10-02T11:14:06.505Z,100652.19
2022-10-02T11:17:10.899Z,100649.84
2022-10-02T11:19:55.238Z,100635.81
2022-10-02T11:22:52.564Z,100639.91
2022-10-02T11:25:28.107Z,100643.81
2022-10-02T11:28:00.671Z,100651.06
2022-10-02T11:30:44.941Z,100667.94
2022-10-02T11:33:19.077Z,100665.38
2022-10-02T11:36:04.439Z,100663.34
2022-10-02T11:38:50.164Z,100654.41
2022-10-02T11:41:43.576Z,100659.94
2022-10-02T11:45:04.436Z,100647.94
2022-10-02T11:48:14.784Z,100661.00
2022-10-02T11:50:41.209Z,100664.19
2022-10-02T11:53:20.088Z,100660.06
2022-10-02T11:56:22.610Z,100662.94
2022-10-02T11:58:52.510Z,100667.28
2022-10-02T12:01:43.000Z,100660.13
2022-10-02T12:04:28.548Z,100653.03
2022-10-02T12:07:19.408Z,100660.84
2022-10-02T12:10:01.262Z,100658.13
2022-10-02T12:12:40.137Z,100661.63
2022-10-02T12:15:26.598Z,100654.88
2022-10-02T12:18:32.875Z,100655.22
2022-10-02T12:21:35.501Z,100663.81
2022-10-02T12:24:37.346Z,100658.63
2022-10-02T12:27:23.142Z,100657.56
2022-10-02T12:30:00.732Z,100672.75
2022-10-02T12:32:40.388Z,100661.81
2022-10-02T12:35:26.139Z,100653.22
2022-10-02T12:38:07.433Z,100641.72
2022-10-02T12:40:58.567Z,100640.59
2022-10-02T12:44:02.580Z,100642.38
2022-10-02T12:46:45.939Z,100639.25
2022-10-02T12:49:58.681Z,100637.13
2022-10-02T12:53:02.300Z,100634.72
2022-10-02T12:56:07.143Z,100646.25
2022-10-02T12:58:53.119Z,100659.06
2022-10-02T13:01:30.602Z,100645.84
2022-10-02T13:04:16.406Z,100635.41
2022-10-02T13:07:05.707Z,100638.69
2022-10-02T13:09:44.252Z,100648.88
2022-10-02T13:12:23.066Z,100639.09
2022-10-02T13:14:55.655Z,100633.84
2022-10-02T13:17:36.098Z,100638.31
2022-10-02T13:20:14.962Z,100645.84
2022-10-02T13:23:06.741Z,100657.78
2022-10-02T13:25:54.867Z,100667.91
2022-10-02T13:28:52.413Z,100662.47
2022-10-02T13:31:50.481Z,100668.19
2022-10-02T13:34:39.098Z,100669.72
2022-10-02T13:37:31.685Z,100664.19
2022-10-02T13:40:22.050Z,100657.81
2022-10-02T13:42:57.811Z,100654.72
2022-10-02T13:45:38.935Z,100646.91
2022-10-02T13:48:18.685Z,100638.25
2022-10-02T13:51:07.404Z,100655.69
2022-10-02T13:53:54.483Z,100649.06
2022-10-02T13:57:10.517Z,100645.19
2022-10-02T14:00:10.405Z,100640.75
2022-10-02T14:02:45.979Z,100645.97
2022-10-02T14:05:40.253Z,100645.06
2022-10-02T14:08:32.281Z,100653.53
2022-10-02T14:11:29.854Z,100643.34
2022-10-02T14:14:10.545Z,100641.03
2022-10-02T14:17:10.090Z,100640.00
2022-10-02T14:19:42.005Z,100643.97
2022-10-02T14:22:43.477Z,100655.59
2022-10-02T14:25:31.808Z,100648.22
2022-10-02T14:28:21.733Z,100648.03
2022-10-02T14:31:06.083Z,100645.59
2022-10-02T14:34:03.204Z,100651.06
2022-10-02T14:36:54.077Z,100657.00
2022-10-02T14:39:34.301Z,100650.84
2022-10-02T14:42:22.242Z,100655.78
2022-10-02T14:45:10.377Z,100655.06
2022-10-02T14:47:37.552Z,100662.69
2022-10-02T14:50:19.884Z,100655.78
2022-10-02T14:53:06.358Z,100644.19
2022-10-02T14:56:09.582Z,100648.34
2022-10-02T14:58:48.127Z,100650.06
2022-10-02T15:01:21.981Z,100648.88
2022-10-02T15:03:51.427Z,100654.84
2022-10-02T15:06:37.654Z,100651.06
2022-10-02T15:09:21.423Z,100666.50
2022-10-02T15:11:58.999Z,100664.25
2022-10-02T15:14:38.739Z,100668.06
2022-10-02T15:17:48.415Z,100669.63
2022-10-02T15:20:23.866Z,100675.72
2022-10-02T15:23:03.168Z,100674.66
2022-10-02T15:25:50.923Z,100679.06
2022-10-02T15:28:36.953Z,100668.88
2022-10-02T15:31:18.900Z,100668.91
2022-10-02T15:33:48.171Z,100670.75
2022-10-02T15:36:43.811Z,100669.56
2022-10-02T15:39:22.714Z,100665.94
2022-10-02T15:42:12.203Z,100676.50
2022-10-02T15:45:02.951Z,100685.50
2022-10-02T15:47:55.579Z,100688.75
2022-10-02T15:50:38.648Z,100688.06
2022-10-02T15:53:23.838Z,100695.28
2022-10-02T15:56:03.469Z,100697.28
2022-10-02T15:58:48.887Z,100705.16
2022-10-02T16:01:28.395Z,100708.69
2022-10-02T16:04:07.784Z,100715.47
2022-10-02T16:07:09.722Z,100702.44
2022-10-02T16:10:28.061Z,100706.63
2022-10-02T16:13:29.252Z,100713.56
2022-10-02T16:16:22.407Z,100715.72
2022-10-02T16:19:18.677Z,100727.91
2022-10-02T16:22:01.413Z,100726.19
2022-10-02T16:24:44.226Z,100721.88
2022-10-02T16:27:32.726Z,100724.44
2022-10-02T16:30:11.055Z,100721.16
2022-10-02T16:32:51.436Z,100727.25
2022-10-02T16:35:47.921Z,100729.94
2022-10-02T16:38:50.324Z,100731.06
2022-10-02T16:41:19.723Z,100734.13
2022-10-02T16:44:26.177Z,100730.06
2022-10-02T16:46:59.886Z,100730.28
2022-10-02T16:49:51.721Z,100728.31
2022-10-02T16:52:29.965Z,100729.22
2022-10-02T16:55:27.637Z,100721.34
2022-10-02T16:58:04.740Z,100738.28
2022-10-02T17:00:37.307Z,100747.84
2022-10-02T17:03:38.644Z,100755.47
2022-10-02T17:06:09.482Z,100760.53
2022-10-02T17:08:41.980Z,100756.91
2022-10-02T17:11:20.319Z,100756.34
2022-10-02T17:14:09.497Z,100761.50
2022-10-02T17:16:58.937Z,100758.66
2022-10-02T17:19:43.267Z,100768.06
2022-10-02T17:22:22.780Z,100765.72
2022-10-02T17:25:17.712Z,100770.13
2022-10-02T17:27:54.135Z,100775.34
2022-10-02T17:30:24.235Z,100786.69
2022-10-02T17:32:50.756Z,100793.00
2022-10-02T17:35:28.849Z,100791.13
2022-10-02T17:38:15.725Z,100805.25
2022-10-02T17:40:45.105Z,100795.63
2022-10-02T17:43:59.545Z,100800.78
2022-10-02T17:47:03.794Z,100801.50
2022-10-02T17:49:38.792Z,100817.34
2022-10-02T17:52:40.770Z,100819.13
2022-10-02T17:55:50.999Z,100816.78
2022-10-02T17:58:39.264Z,100824.44
2022-10-02T18:01:14.802Z,100823.59
2022-10-02T18:03:52.785Z,100835.97
2022-10-02T18:06:32.143Z,100832.38
2022-10-02T18:09:23.303Z,100844.00
2022-10-02T18:12:02.805Z,100846.00
2022-10-02T18:14:48.406Z,100842.50
2022-10-02T18:17:42.375Z,100857.56
2022-10-02T18:20:34.755Z,100854.22
2022-10-02T18:23:38.120Z,100863.84
2022-10-02T18:26:25.981Z,100865.72
2022-10-02T18:29:14.867Z,100867.38
2022-10-02T18:32:03.634Z,100874.31
2022-10-02T18:34:45.859Z,100872.59
2022-10-02T18:37:26.892Z,100877.09
2022-10-02T18:40:07.146Z,100873.81
2022-10-02T18:43:03.570Z,100876.44
2022-10-02T18:45:47.457Z,100881.59
2022-10-02T18:48:26.246Z,100896.69
2022-10-02T18:51:20.873Z,100893.78
2022-10-02T18:54:15.811Z,100900.78
2022-10-02T18:56:58.856Z,100898.22
2022-10-02T18:59:53.210Z,100901.72
2022-10-02T19:02:19.968Z,100918.34
2022-10-02T19:05:38.814Z,100907.44
2022-10-02T19:08:05.218Z,100912.75
2022-10-02T19:10:31.570Z,100914.34
2022-10-02T19:13:17.638Z,100919.81
2022-10-02T19:15:46.712Z,100918.16
2022-10-02T19:18:17.815Z,100924.94
2022-10-02T19:21:06.729Z,100930.84
2022-10-02T19:24:01.455Z,100937.84
2022-10-02T19:26:32.956Z,100942.19
2022-10-02T19:29:08.342Z,100948.34
2022-10-02T19:31:39.233Z,100947.22
2022-10-02T19:34:13.283Z,100943.69
2022-10-02T19:36:44.955Z,100961.97
2022-10-02T19:39:30.313Z,100950.56
2022-10-02T19:42:03.822Z,100955.88
2022-10-02T19:44:38.630Z,100972.50
2022-10-02T19:47:16.716Z,100974.41
2022-10-02T19:49:47.291Z,100973.41
2022-10-02T19:52:35.832Z,100979.59
2022-10-02T19:55:18.007Z,100974.41
2022-10-02T19:57:47.806Z,100986.72
2022-10-02T20:00:17.177Z,100991.22
2022-10-02T20:02:51.831Z,100995.59
2022-10-02T20:05:22.527Z,101000.09
2022-10-02T20:07:53.609Z,101007.03
2022-10-02T20:10:32.358Z,101014.94
2022-10-02T20:13:07.416Z,101024.56
2022-10-02T20:16:04.823Z,101017.56
2022-10-02T20:18:31.402Z,101025.50
2022-10-02T20:21:13.481Z,101018.75
2022-10-02T20:23:43.805Z,101021.16
2022-10-02T20:26:14.603Z,101022.22
2022-10-02T20:28:48.130Z,101024.94
2022-10-02T20:31:20.275Z,101030.19
2022-10-02T20:33:51.804Z,101033.72
2022-10-02T20:36:28.935Z,101039.66
2022-10-02T20:39:03.546Z,101036.53
2022-10-02T20:41:59.434Z,101040.75
2022-10-02T20:44:28.461Z,101054.81
2022-10-02T20:47:13.804Z,101055.84
2022-10-02T20:50:18.134Z,101055.72
2022-10-02T20:53:29.015Z,101058.41
2022-10-02T20:56:40.033Z,101068.66
2022-10-02T20:59:30.148Z,101070.75
2022-10-02T21:01:56.617Z,101080.38
2022-10-02T21:04:50.763Z,101081.06
2022-10-02T21:07:28.729Z,101086.31
2022-10-02T21:10:40.414Z,101088.88
2022-10-02T21:13:36.343Z,101094.09
2022-10-02T21:16:22.798Z,101089.72
2022-10-02T21:19:15.291Z,101093.81
2022-10-02T21:21:56.309Z,101093.75
2022-10-02T21:24:41.851Z,101096.78
2022-10-02T21:27:39.861Z,101105.53
2022-10-02T21:30:19.782Z,101101.47
2022-10-02T21:33:12.800Z,101098.09
2022-10-02T21:36:04.401Z,101100.56
2022-10-02T21:38:56.771Z,101100.06
2022-10-02T21:41:23.343Z,101109.44
2022-10-02T21:44:27.572Z,101110.06
2022-10-02T21:47:19.842Z,101119.38
2022-10-02T21:50:05.259Z,101127.81
2022-10-02T21:53:11.174Z,101125.38
2022-10-02T21:55:52.431Z,101122.06
2022-10-02T21:58:41.872Z,101125.72
2022-10-02T22:01:57.528Z,101129.91
2022-10-02T22:04:57.377Z,101137.50
2022-10-02T22:07:45.491Z,101128.16
2022-10-02T22:10:28.813Z,101136.06
2022-10-02T22:13:23.604Z,101142.63
2022-10-02T22:16:29.569Z,101141.53
2022-10-02T22:19:19.735Z,101145.81
2022-10-02T22:21:55.234Z,101147.38
2022-10-02T22:24:50.007Z,101151.19
2022-10-02T22:27:25.740Z,101154.84
2022-10-02T22:29:56.743Z,101160.13
2022-10-02T22:32:45.302Z,101162.03
2022-10-02T22:35:44.478Z,101165.72
2022-10-02T22:38:20.135Z,101158.44
2022-10-02T22:40:54.963Z,101164.50
2022-10-02T22:43:36.476Z,101161.00
2022-10-02T22:46:41.423Z,101166.38
2022-10-02T22:49:29.309Z,101175.88
2022-10-02T22:52:02.993Z,101179.09
2022-10-02T22:54:54.491Z,101175.28
2022-10-02T22:57:36.972Z,101174.16
2022-10-02T23:00:15.475Z,101183.63
2022-10-02T23:03:04.812Z,101185.19
2022-10-02T23:05:48.128Z,101187.09
2022-10-02T23:08:37.865Z,101183.66
2022-10-02T23:11:22.258Z,101191.66
2022-10-02T23:14:00.255Z,101189.63
2022-10-02T23:16:31.936Z,101191.75
2022-10-02T23:19:07.036Z,101194.38
2022-10-02T23:22:07.207Z,101195.31
2022-10-02T23:25:18.796Z,101194.28
2022-10-02T23:27:59.008Z,101204.41
2022-10-02T23:30:26.854Z,101208.78
2022-10-02T23:33:02.811Z,101203.34
2022-10-02T23:36:03.066Z,101211.31
2022-10-02T23:38:46.746Z,101204.28
2022-10-02T23:41:42.574Z,101204.59
2022-10-02T23:44:55.710Z,101195.66
2022-10-02T23:47:31.841Z,101202.66
2022-10-02T23:49:59.485Z,101210.63
2022-10-02T23:52:44.720Z,101210.50
2022-10-02T23:55:23.249Z,101214.88
2022-10-02T23:58:42.322Z,101220.06
